Terminal Aerodrome Forecast
Issued by NWS Wilmington, OH

Current Version | Previous Version | Graphics & Text | Print | Product List | Glossary On
Versions: 1 2 3 4 5 6 7 8 9 10 11 12 13 14 15 16 17 18 19 20 21 22
000
FTUS41 KILN 221100
TAFCMH
TAF
KCMH 221135Z 2212/2312 00000KT P6SM SKC
      TEMPO 2212/2213 6SM HZ
     FM221300 20006KT P6SM SCT040
     FM230000 22005KT P6SM SCT250
     FM230700 24004KT P6SM SCT100 BKN200=

USA.gov is the U.S. government's official web portal to all federal, state and local government web resources and services.